sensor_id;sensor_type;location;lat;lon;timestamp;temperature;humidity
28863;DHT22;15994;51.796;13.006;2022-09-24T00:01:32;10.80;99.90
28863;DHT22;15994;51.796;13.006;2022-09-24T00:04:02;10.90;99.90
28863;DHT22;15994;51.796;13.006;2022-09-24T00:06:34;10.90;99.90
28863;DHT22;15994;51.796;13.006;2022-09-24T00:09:02;10.80;99.90
28863;DHT22;15994;51.796;13.006;2022-09-24T00:11:29;10.80;99.90
28863;DHT22;15994;51.796;13.006;2022-09-24T00:13:56;10.80;99.90
28863;DHT22;15994;51.796;13.006;2022-09-24T00:16:25;10.80;99.90
28863;DHT22;15994;51.796;13.006;2022-09-24T00:18:53;10.70;99.90
28863;DHT22;15994;51.796;13.006;2022-09-24T00:21:28;10.70;99.90
28863;DHT22;15994;51.796;13.006;2022-09-24T00:24:00;10.70;99.90
28863;DHT22;15994;51.796;13.006;2022-09-24T00:26:26;10.70;99.90
28863;DHT22;15994;51.796;13.006;2022-09-24T00:29:15;10.70;99.90
28863;DHT22;15994;51.796;13.006;2022-09-24T00:31:42;10.80;99.90
28863;DHT22;15994;51.796;13.006;2022-09-24T00:34:09;10.80;99.90
28863;DHT22;15994;51.796;13.006;2022-09-24T00:36:36;10.80;99.90
28863;DHT22;15994;51.796;13.006;2022-09-24T00:39:03;10.80;99.90
28863;DHT22;15994;51.796;13.006;2022-09-24T00:41:33;10.80;99.90
28863;DHT22;15994;51.796;13.006;2022-09-24T00:44:00;10.80;99.90
28863;DHT22;15994;51.796;13.006;2022-09-24T00:46:43;10.70;99.90
28863;DHT22;15994;51.796;13.006;2022-09-24T00:49:15;10.70;99.90
28863;DHT22;15994;51.796;13.006;2022-09-24T00:51:44;10.80;99.90
28863;DHT22;15994;51.796;13.006;2022-09-24T00:54:16;10.70;99.90
28863;DHT22;15994;51.796;13.006;2022-09-24T00:56:46;10.70;99.90
28863;DHT22;15994;51.796;13.006;2022-09-24T00:59:16;10.70;99.90
28863;DHT22;15994;51.796;13.006;2022-09-24T01:01:45;10.70;99.90
28863;DHT22;15994;51.796;13.006;2022-09-24T01:04:13;10.70;99.90
28863;DHT22;15994;51.796;13.006;2022-09-24T01:06:40;10.80;99.90
28863;DHT22;15994;51.796;13.006;2022-09-24T01:09:07;10.80;99.90
28863;DHT22;15994;51.796;13.006;2022-09-24T01:14:38;10.80;99.90
28863;DHT22;15994;51.796;13.006;2022-09-24T01:17:34;10.70;99.90
28863;DHT22;15994;51.796;13.006;2022-09-24T01:20:21;10.70;99.90
28863;DHT22;15994;51.796;13.006;2022-09-24T01:25:31;10.70;99.90
28863;DHT22;15994;51.796;13.006;2022-09-24T01:28:30;10.70;99.90
28863;DHT22;15994;51.796;13.006;2022-09-24T01:31:04;10.60;99.90
28863;DHT22;15994;51.796;13.006;2022-09-24T01:33:35;10.70;99.90
28863;DHT22;15994;51.796;13.006;2022-09-24T01:36:03;10.70;99.90
28863;DHT22;15994;51.796;13.006;2022-09-24T01:38:35;10.70;99.90
28863;DHT22;15994;51.796;13.006;2022-09-24T01:41:04;10.70;99.90
28863;DHT22;15994;51.796;13.006;2022-09-24T01:43:33;10.70;99.90
28863;DHT22;15994;51.796;13.006;2022-09-24T01:46:02;10.70;99.90
28863;DHT22;15994;51.796;13.006;2022-09-24T01:48:32;10.60;99.90
28863;DHT22;15994;51.796;13.006;2022-09-24T01:51:04;10.70;99.90
28863;DHT22;15994;51.796;13.006;2022-09-24T01:53:41;10.60;99.90
28863;DHT22;15994;51.796;13.006;2022-09-24T01:56:14;10.60;99.90
28863;DHT22;15994;51.796;13.006;2022-09-24T01:58:48;10.60;99.90
28863;DHT22;15994;51.796;13.006;2022-09-24T02:01:28;10.60;99.90
28863;DHT22;15994;51.796;13.006;2022-09-24T02:03:59;10.60;99.90
28863;DHT22;15994;51.796;13.006;2022-09-24T02:06:36;10.50;99.90
28863;DHT22;15994;51.796;13.006;2022-09-24T02:09:03;10.40;99.90
28863;DHT22;15994;51.796;13.006;2022-09-24T02:11:31;10.50;99.90
28863;DHT22;15994;51.796;13.006;2022-09-24T02:14:13;10.40;99.90
28863;DHT22;15994;51.796;13.006;2022-09-24T02:16:46;10.30;99.90
28863;DHT22;15994;51.796;13.006;2022-09-24T02:19:18;10.30;99.90
28863;DHT22;15994;51.796;13.006;2022-09-24T02:21:45;10.20;99.90
28863;DHT22;15994;51.796;13.006;2022-09-24T02:24:21;10.20;99.90
28863;DHT22;15994;51.796;13.006;2022-09-24T02:26:49;10.20;99.90
28863;DHT22;15994;51.796;13.006;2022-09-24T02:29:16;10.10;99.90
28863;DHT22;15994;51.796;13.006;2022-09-24T02:31:46;10.10;99.90
28863;DHT22;15994;51.796;13.006;2022-09-24T02:34:20;10.10;99.90
28863;DHT22;15994;51.796;13.006;2022-09-24T02:36:53;10.10;99.90
28863;DHT22;15994;51.796;13.006;2022-09-24T02:39:20;10.10;99.90
28863;DHT22;15994;51.796;13.006;2022-09-24T02:41:48;10.10;99.90
28863;DHT22;15994;51.796;13.006;2022-09-24T02:44:16;10.10;99.90
28863;DHT22;15994;51.796;13.006;2022-09-24T02:46:44;10.10;99.90
28863;DHT22;15994;51.796;13.006;2022-09-24T02:49:11;10.10;99.90
28863;DHT22;15994;51.796;13.006;2022-09-24T02:51:39;10.10;99.90
28863;DHT22;15994;51.796;13.006;2022-09-24T02:54:06;10.10;99.90
28863;DHT22;15994;51.796;13.006;2022-09-24T02:56:32;10.10;99.90
28863;DHT22;15994;51.796;13.006;2022-09-24T02:58:59;10.20;99.90
28863;DHT22;15994;51.796;13.006;2022-09-24T03:01:28;10.20;99.90
28863;DHT22;15994;51.796;13.006;2022-09-24T03:03:55;10.20;99.90
28863;DHT22;15994;51.796;13.006;2022-09-24T03:06:21;10.10;99.90
28863;DHT22;15994;51.796;13.006;2022-09-24T03:08:49;10.10;99.90
28863;DHT22;15994;51.796;13.006;2022-09-24T03:11:16;10.10;99.90
28863;DHT22;15994;51.796;13.006;2022-09-24T03:13:42;10.10;99.90
28863;DHT22;15994;51.796;13.006;2022-09-24T03:16:09;10.10;99.90
28863;DHT22;15994;51.796;13.006;2022-09-24T03:18:35;10.10;99.90
28863;DHT22;15994;51.796;13.006;2022-09-24T03:21:05;10.10;99.90
28863;DHT22;15994;51.796;13.006;2022-09-24T03:23:33;10.10;99.90
28863;DHT22;15994;51.796;13.006;2022-09-24T03:26:00;10.00;99.90
28863;DHT22;15994;51.796;13.006;2022-09-24T03:28:26;10.00;99.90
28863;DHT22;15994;51.796;13.006;2022-09-24T03:30:53;10.00;99.90
28863;DHT22;15994;51.796;13.006;2022-09-24T03:35:57;9.90;99.90
28863;DHT22;15994;51.796;13.006;2022-09-24T03:38:25;9.90;99.90
28863;DHT22;15994;51.796;13.006;2022-09-24T03:40:51;9.90;99.90
28863;DHT22;15994;51.796;13.006;2022-09-24T03:43:18;9.90;99.90
28863;DHT22;15994;51.796;13.006;2022-09-24T03:45:44;9.90;99.90
28863;DHT22;15994;51.796;13.006;2022-09-24T03:48:11;9.90;99.90
28863;DHT22;15994;51.796;13.006;2022-09-24T03:50:38;9.90;99.90
28863;DHT22;15994;51.796;13.006;2022-09-24T03:53:04;9.90;99.90
28863;DHT22;15994;51.796;13.006;2022-09-24T03:55:31;9.90;99.90
28863;DHT22;15994;51.796;13.006;2022-09-24T03:57:57;9.90;99.90
28863;DHT22;15994;51.796;13.006;2022-09-24T04:00:24;9.90;99.90
28863;DHT22;15994;51.796;13.006;2022-09-24T04:02:51;9.90;99.90
28863;DHT22;15994;51.796;13.006;2022-09-24T04:05:18;9.90;99.90
28863;DHT22;15994;51.796;13.006;2022-09-24T04:07:45;9.80;99.90
28863;DHT22;15994;51.796;13.006;2022-09-24T04:10:11;9.90;99.90
28863;DHT22;15994;51.796;13.006;2022-09-24T04:12:38;9.90;99.90
28863;DHT22;15994;51.796;13.006;2022-09-24T04:15:05;9.90;99.90
28863;DHT22;15994;51.796;13.006;2022-09-24T04:17:31;9.80;99.90
28863;DHT22;15994;51.796;13.006;2022-09-24T04:19:58;9.90;99.90
28863;DHT22;15994;51.796;13.006;2022-09-24T04:22:25;9.80;99.90
28863;DHT22;15994;51.796;13.006;2022-09-24T04:24:52;9.80;99.90
28863;DHT22;15994;51.796;13.006;2022-09-24T04:27:18;9.90;99.90
28863;DHT22;15994;51.796;13.006;2022-09-24T04:29:45;9.80;99.90
28863;DHT22;15994;51.796;13.006;2022-09-24T04:32:12;9.80;99.90
28863;DHT22;15994;51.796;13.006;2022-09-24T04:34:38;9.70;99.90
28863;DHT22;15994;51.796;13.006;2022-09-24T04:37:05;9.60;99.90
28863;DHT22;15994;51.796;13.006;2022-09-24T04:39:33;9.60;99.90
28863;DHT22;15994;51.796;13.006;2022-09-24T04:42:00;9.50;99.90
28863;DHT22;15994;51.796;13.006;2022-09-24T04:44:26;9.50;99.90
28863;DHT22;15994;51.796;13.006;2022-09-24T04:46:53;9.50;99.90
28863;DHT22;15994;51.796;13.006;2022-09-24T04:49:24;9.40;99.90
28863;DHT22;15994;51.796;13.006;2022-09-24T04:51:50;9.30;99.90
28863;DHT22;15994;51.796;13.006;2022-09-24T04:54:17;9.30;99.90
28863;DHT22;15994;51.796;13.006;2022-09-24T04:56:44;9.30;99.90
28863;DHT22;15994;51.796;13.006;2022-09-24T04:59:10;9.10;99.90
28863;DHT22;15994;51.796;13.006;2022-09-24T05:01:37;9.20;99.90
28863;DHT22;15994;51.796;13.006;2022-09-24T05:04:03;9.20;99.90
28863;DHT22;15994;51.796;13.006;2022-09-24T05:06:30;9.10;99.90
28863;DHT22;15994;51.796;13.006;2022-09-24T05:08:57;9.10;99.90
28863;DHT22;15994;51.796;13.006;2022-09-24T05:11:23;9.10;99.90
28863;DHT22;15994;51.796;13.006;2022-09-24T05:13:50;9.10;99.90
28863;DHT22;15994;51.796;13.006;2022-09-24T05:16:16;9.20;99.90
28863;DHT22;15994;51.796;13.006;2022-09-24T05:18:43;9.20;99.90
28863;DHT22;15994;51.796;13.006;2022-09-24T05:21:09;9.30;99.90
28863;DHT22;15994;51.796;13.006;2022-09-24T05:23:36;9.30;99.90
28863;DHT22;15994;51.796;13.006;2022-09-24T05:26:02;9.40;99.90
28863;DHT22;15994;51.796;13.006;2022-09-24T05:28:46;9.40;99.90
28863;DHT22;15994;51.796;13.006;2022-09-24T05:31:13;9.40;99.90
28863;DHT22;15994;51.796;13.006;2022-09-24T05:33:39;9.50;99.90
28863;DHT22;15994;51.796;13.006;2022-09-24T05:36:06;9.40;99.90
28863;DHT22;15994;51.796;13.006;2022-09-24T05:38:32;9.50;99.90
28863;DHT22;15994;51.796;13.006;2022-09-24T05:40:59;9.60;99.90
28863;DHT22;15994;51.796;13.006;2022-09-24T05:43:26;9.60;99.90
28863;DHT22;15994;51.796;13.006;2022-09-24T05:45:53;9.60;99.90
28863;DHT22;15994;51.796;13.006;2022-09-24T05:48:21;9.70;99.90
28863;DHT22;15994;51.796;13.006;2022-09-24T05:50:48;9.80;99.90
28863;DHT22;15994;51.796;13.006;2022-09-24T05:53:19;9.80;99.90
28863;DHT22;15994;51.796;13.006;2022-09-24T05:55:46;9.80;99.90
28863;DHT22;15994;51.796;13.006;2022-09-24T05:58:13;9.90;99.90
28863;DHT22;15994;51.796;13.006;2022-09-24T06:00:39;9.90;99.90
28863;DHT22;15994;51.796;13.006;2022-09-24T06:03:14;9.90;99.90
28863;DHT22;15994;51.796;13.006;2022-09-24T06:05:45;10.00;99.90
28863;DHT22;15994;51.796;13.006;2022-09-24T06:08:13;10.00;99.90
28863;DHT22;15994;51.796;13.006;2022-09-24T06:10:41;10.00;99.90
28863;DHT22;15994;51.796;13.006;2022-09-24T06:13:09;10.00;99.90
28863;DHT22;15994;51.796;13.006;2022-09-24T06:15:38;10.10;99.90
28863;DHT22;15994;51.796;13.006;2022-09-24T06:18:05;10.10;99.90
28863;DHT22;15994;51.796;13.006;2022-09-24T06:20:32;10.20;99.90
28863;DHT22;15994;51.796;13.006;2022-09-24T06:22:59;10.20;99.90
28863;DHT22;15994;51.796;13.006;2022-09-24T06:25:27;10.20;99.90
28863;DHT22;15994;51.796;13.006;2022-09-24T06:27:57;10.20;99.90
28863;DHT22;15994;51.796;13.006;2022-09-24T06:30:31;10.20;99.90
28863;DHT22;15994;51.796;13.006;2022-09-24T06:33:02;10.30;99.90
28863;DHT22;15994;51.796;13.006;2022-09-24T06:35:33;10.20;99.90
28863;DHT22;15994;51.796;13.006;2022-09-24T06:38:02;10.20;99.90
28863;DHT22;15994;51.796;13.006;2022-09-24T06:40:28;10.20;99.90
28863;DHT22;15994;51.796;13.006;2022-09-24T06:42:55;10.20;99.90
28863;DHT22;15994;51.796;13.006;2022-09-24T06:45:22;10.30;99.90
28863;DHT22;15994;51.796;13.006;2022-09-24T06:47:56;10.40;99.90
28863;DHT22;15994;51.796;13.006;2022-09-24T06:50:25;10.40;99.90
28863;DHT22;15994;51.796;13.006;2022-09-24T06:52:53;10.60;99.90
28863;DHT22;15994;51.796;13.006;2022-09-24T06:55:20;10.70;99.90
28863;DHT22;15994;51.796;13.006;2022-09-24T06:57:47;10.80;99.90
28863;DHT22;15994;51.796;13.006;2022-09-24T07:00:15;10.90;99.90
28863;DHT22;15994;51.796;13.006;2022-09-24T07:02:42;11.00;99.90
28863;DHT22;15994;51.796;13.006;2022-09-24T07:05:09;11.10;99.90
28863;DHT22;15994;51.796;13.006;2022-09-24T07:07:35;11.20;99.90
28863;DHT22;15994;51.796;13.006;2022-09-24T07:10:04;11.20;99.90
28863;DHT22;15994;51.796;13.006;2022-09-24T07:12:33;11.30;99.90
28863;DHT22;15994;51.796;13.006;2022-09-24T07:15:00;11.50;99.90
28863;DHT22;15994;51.796;13.006;2022-09-24T07:17:28;11.50;99.90
28863;DHT22;15994;51.796;13.006;2022-09-24T07:19:54;11.50;99.90
28863;DHT22;15994;51.796;13.006;2022-09-24T07:22:21;11.50;99.90
28863;DHT22;15994;51.796;13.006;2022-09-24T07:24:47;11.50;99.90
28863;DHT22;15994;51.796;13.006;2022-09-24T07:27:15;11.40;99.90
28863;DHT22;15994;51.796;13.006;2022-09-24T07:29:41;11.50;99.90
28863;DHT22;15994;51.796;13.006;2022-09-24T07:32:08;11.60;99.90
28863;DHT22;15994;51.796;13.006;2022-09-24T07:34:34;11.70;99.90
28863;DHT22;15994;51.796;13.006;2022-09-24T07:37:01;11.80;99.90
28863;DHT22;15994;51.796;13.006;2022-09-24T07:39:27;11.90;99.90
28863;DHT22;15994;51.796;13.006;2022-09-24T07:41:54;12.00;99.90
28863;DHT22;15994;51.796;13.006;2022-09-24T07:44:21;12.00;99.90
28863;DHT22;15994;51.796;13.006;2022-09-24T07:46:51;12.10;99.90
28863;DHT22;15994;51.796;13.006;2022-09-24T07:49:17;12.10;99.90
28863;DHT22;15994;51.796;13.006;2022-09-24T07:51:44;12.20;99.90
28863;DHT22;15994;51.796;13.006;2022-09-24T07:54:10;12.30;99.90
28863;DHT22;15994;51.796;13.006;2022-09-24T07:56:37;12.30;99.90
28863;DHT22;15994;51.796;13.006;2022-09-24T07:59:05;12.40;99.90
28863;DHT22;15994;51.796;13.006;2022-09-24T08:01:32;12.50;99.90
28863;DHT22;15994;51.796;13.006;2022-09-24T08:04:00;12.60;99.90
28863;DHT22;15994;51.796;13.006;2022-09-24T08:06:29;12.70;99.90
28863;DHT22;15994;51.796;13.006;2022-09-24T08:08:58;12.90;99.90
28863;DHT22;15994;51.796;13.006;2022-09-24T08:11:24;13.00;99.90
28863;DHT22;15994;51.796;13.006;2022-09-24T08:13:51;13.10;99.90
28863;DHT22;15994;51.796;13.006;2022-09-24T08:16:17;13.10;99.90
28863;DHT22;15994;51.796;13.006;2022-09-24T08:18:45;13.20;99.90
28863;DHT22;15994;51.796;13.006;2022-09-24T08:21:12;13.20;99.90
28863;DHT22;15994;51.796;13.006;2022-09-24T08:23:40;13.30;99.90
28863;DHT22;15994;51.796;13.006;2022-09-24T08:26:07;13.40;99.90
28863;DHT22;15994;51.796;13.006;2022-09-24T08:28:35;13.40;99.90
28863;DHT22;15994;51.796;13.006;2022-09-24T08:31:04;13.40;99.90
28863;DHT22;15994;51.796;13.006;2022-09-24T08:33:33;13.50;99.90
28863;DHT22;15994;51.796;13.006;2022-09-24T08:36:02;13.60;99.90
28863;DHT22;15994;51.796;13.006;2022-09-24T08:38:28;13.70;99.90
28863;DHT22;15994;51.796;13.006;2022-09-24T08:47:06;14.00;99.90
28863;DHT22;15994;51.796;13.006;2022-09-24T08:52:39;14.40;99.90
28863;DHT22;15994;51.796;13.006;2022-09-24T08:55:17;14.60;99.90
28863;DHT22;15994;51.796;13.006;2022-09-24T09:00:26;15.00;99.90
28863;DHT22;15994;51.796;13.006;2022-09-24T09:03:02;15.20;99.90
28863;DHT22;15994;51.796;13.006;2022-09-24T09:08:23;15.50;99.90
28863;DHT22;15994;51.796;13.006;2022-09-24T09:10:58;15.60;99.90
28863;DHT22;15994;51.796;13.006;2022-09-24T09:13:35;15.80;99.90
28863;DHT22;15994;51.796;13.006;2022-09-24T09:16:09;15.90;99.90
28863;DHT22;15994;51.796;13.006;2022-09-24T09:18:42;16.00;99.90
28863;DHT22;15994;51.796;13.006;2022-09-24T09:21:30;16.10;99.90
28863;DHT22;15994;51.796;13.006;2022-09-24T09:24:01;16.10;99.90
28863;DHT22;15994;51.796;13.006;2022-09-24T09:26:28;16.10;99.90
28863;DHT22;15994;51.796;13.006;2022-09-24T09:28:58;16.10;99.90
28863;DHT22;15994;51.796;13.006;2022-09-24T09:37:19;16.20;99.90
28863;DHT22;15994;51.796;13.006;2022-09-24T09:42:31;16.40;99.90
28863;DHT22;15994;51.796;13.006;2022-09-24T09:47:52;16.50;99.90
28863;DHT22;15994;51.796;13.006;2022-09-24T09:50:35;16.60;99.90
28863;DHT22;15994;51.796;13.006;2022-09-24T09:53:03;16.70;99.90
28863;DHT22;15994;51.796;13.006;2022-09-24T09:55:35;16.80;99.90
28863;DHT22;15994;51.796;13.006;2022-09-24T10:00:41;16.80;99.90
28863;DHT22;15994;51.796;13.006;2022-09-24T10:03:23;16.90;99.90
28863;DHT22;15994;51.796;13.006;2022-09-24T10:05:55;16.90;99.90
28863;DHT22;15994;51.796;13.006;2022-09-24T10:08:23;17.00;99.90
28863;DHT22;15994;51.796;13.006;2022-09-24T10:10:58;17.10;99.90
28863;DHT22;15994;51.796;13.006;2022-09-24T10:13:25;17.20;99.90
28863;DHT22;15994;51.796;13.006;2022-09-24T10:15:55;17.40;99.90
28863;DHT22;15994;51.796;13.006;2022-09-24T10:18:32;17.40;99.90
28863;DHT22;15994;51.796;13.006;2022-09-24T10:21:02;17.50;99.90
28863;DHT22;15994;51.796;13.006;2022-09-24T10:23:41;17.70;99.90
28863;DHT22;15994;51.796;13.006;2022-09-24T10:26:08;18.00;99.90
28863;DHT22;15994;51.796;13.006;2022-09-24T10:28:47;18.20;99.90
28863;DHT22;15994;51.796;13.006;2022-09-24T10:31:36;18.30;99.90
28863;DHT22;15994;51.796;13.006;2022-09-24T10:34:15;18.30;99.90
28863;DHT22;15994;51.796;13.006;2022-09-24T10:36:50;18.50;99.90
28863;DHT22;15994;51.796;13.006;2022-09-24T10:39:17;18.70;99.90
28863;DHT22;15994;51.796;13.006;2022-09-24T10:41:47;18.80;99.90
28863;DHT22;15994;51.796;13.006;2022-09-24T10:44:14;18.90;99.90
28863;DHT22;15994;51.796;13.006;2022-09-24T11:01:18;19.30;99.90
28863;DHT22;15994;51.796;13.006;2022-09-24T11:09:57;18.90;99.90
28863;DHT22;15994;51.796;13.006;2022-09-24T11:18:06;18.70;99.90
28863;DHT22;15994;51.796;13.006;2022-09-24T11:20:43;18.80;99.90
28863;DHT22;15994;51.796;13.006;2022-09-24T11:26:24;18.80;99.90
28863;DHT22;15994;51.796;13.006;2022-09-24T11:32:02;18.70;99.90
28863;DHT22;15994;51.796;13.006;2022-09-24T11:37:45;18.80;99.90
28863;DHT22;15994;51.796;13.006;2022-09-24T11:40:40;18.90;99.90
28863;DHT22;15994;51.796;13.006;2022-09-24T11:46:17;18.90;99.90
28863;DHT22;15994;51.796;13.006;2022-09-24T11:48:51;19.00;99.90
28863;DHT22;15994;51.796;13.006;2022-09-24T11:56:59;19.60;99.90
28863;DHT22;15994;51.796;13.006;2022-09-24T11:59:43;19.40;99.90
28863;DHT22;15994;51.796;13.006;2022-09-24T12:02:20;19.40;99.90
28863;DHT22;15994;51.796;13.006;2022-09-24T12:05:11;19.40;99.90
28863;DHT22;15994;51.796;13.006;2022-09-24T12:08:05;19.50;99.90
28863;DHT22;15994;51.796;13.006;2022-09-24T12:15:59;19.60;99.90
28863;DHT22;15994;51.796;13.006;2022-09-24T12:18:45;19.70;99.90
28863;DHT22;15994;51.796;13.006;2022-09-24T12:21:20;19.50;99.90
28863;DHT22;15994;51.796;13.006;2022-09-24T12:23:49;19.50;99.90
28863;DHT22;15994;51.796;13.006;2022-09-24T12:26:19;19.50;99.90
28863;DHT22;15994;51.796;13.006;2022-09-24T12:29:15;19.50;99.90
28863;DHT22;15994;51.796;13.006;2022-09-24T12:32:10;19.40;99.90
28863;DHT22;15994;51.796;13.006;2022-09-24T12:35:24;19.40;99.90
28863;DHT22;15994;51.796;13.006;2022-09-24T12:43:30;19.00;99.90
28863;DHT22;15994;51.796;13.006;2022-09-24T12:46:00;19.00;99.90
28863;DHT22;15994;51.796;13.006;2022-09-24T12:48:30;19.00;99.90
28863;DHT22;15994;51.796;13.006;2022-09-24T12:51:01;19.00;99.90
28863;DHT22;15994;51.796;13.006;2022-09-24T12:53:33;18.90;99.90
28863;DHT22;15994;51.796;13.006;2022-09-24T12:56:01;18.80;99.90
28863;DHT22;15994;51.796;13.006;2022-09-24T12:58:41;18.80;99.90
28863;DHT22;15994;51.796;13.006;2022-09-24T13:08:56;19.00;99.90
28863;DHT22;15994;51.796;13.006;2022-09-24T13:11:29;19.10;99.90
28863;DHT22;15994;51.796;13.006;2022-09-24T13:14:17;19.10;99.90
28863;DHT22;15994;51.796;13.006;2022-09-24T13:16:47;19.10;99.90
28863;DHT22;15994;51.796;13.006;2022-09-24T13:19:32;19.20;99.90
28863;DHT22;15994;51.796;13.006;2022-09-24T13:22:00;19.10;99.90
28863;DHT22;15994;51.796;13.006;2022-09-24T13:24:30;19.00;99.90
28863;DHT22;15994;51.796;13.006;2022-09-24T13:32:39;18.70;99.90
28863;DHT22;15994;51.796;13.006;2022-09-24T13:35:17;18.70;99.90
28863;DHT22;15994;51.796;13.006;2022-09-24T13:37:51;18.60;99.90
28863;DHT22;15994;51.796;13.006;2022-09-24T13:40:23;18.50;99.90
28863;DHT22;15994;51.796;13.006;2022-09-24T13:45:25;18.30;99.90
28863;DHT22;15994;51.796;13.006;2022-09-24T13:47:58;18.20;99.90
28863;DHT22;15994;51.796;13.006;2022-09-24T13:50:28;18.20;99.90
28863;DHT22;15994;51.796;13.006;2022-09-24T13:53:13;18.30;99.90
28863;DHT22;15994;51.796;13.006;2022-09-24T13:55:48;18.40;99.90
28863;DHT22;15994;51.796;13.006;2022-09-24T13:58:37;18.40;99.90
28863;DHT22;15994;51.796;13.006;2022-09-24T14:01:21;18.50;99.90
28863;DHT22;15994;51.796;13.006;2022-09-24T14:03:57;18.60;99.90
28863;DHT22;15994;51.796;13.006;2022-09-24T14:06:37;18.70;99.90
28863;DHT22;15994;51.796;13.006;2022-09-24T14:11:52;18.70;99.90
28863;DHT22;15994;51.796;13.006;2022-09-24T14:14:22;18.80;99.90
28863;DHT22;15994;51.796;13.006;2022-09-24T14:16:49;18.90;99.90
28863;DHT22;15994;51.796;13.006;2022-09-24T14:19:19;18.90;99.90
28863;DHT22;15994;51.796;13.006;2022-09-24T14:21:52;18.90;99.90
28863;DHT22;15994;51.796;13.006;2022-09-24T14:27:04;18.80;99.90
28863;DHT22;15994;51.796;13.006;2022-09-24T14:30:03;18.80;99.90
28863;DHT22;15994;51.796;13.006;2022-09-24T14:32:37;18.80;99.90
28863;DHT22;15994;51.796;13.006;2022-09-24T14:35:20;18.90;99.90
28863;DHT22;15994;51.796;13.006;2022-09-24T14:37:56;19.00;99.90
28863;DHT22;15994;51.796;13.006;2022-09-24T14:40:24;19.10;99.90
28863;DHT22;15994;51.796;13.006;2022-09-24T14:42:59;19.10;99.90
28863;DHT22;15994;51.796;13.006;2022-09-24T14:45:31;19.20;99.90
28863;DHT22;15994;51.796;13.006;2022-09-24T14:50:45;19.10;99.90
28863;DHT22;15994;51.796;13.006;2022-09-24T14:53:12;19.10;99.90
28863;DHT22;15994;51.796;13.006;2022-09-24T14:55:44;19.00;99.90
28863;DHT22;15994;51.796;13.006;2022-09-24T15:01:31;18.90;99.90
28863;DHT22;15994;51.796;13.006;2022-09-24T15:04:01;18.80;99.90
28863;DHT22;15994;51.796;13.006;2022-09-24T15:06:30;18.80;99.90
28863;DHT22;15994;51.796;13.006;2022-09-24T15:11:38;18.70;99.90
28863;DHT22;15994;51.796;13.006;2022-09-24T15:16:42;18.70;99.90
28863;DHT22;15994;51.796;13.006;2022-09-24T15:19:24;18.70;99.90
28863;DHT22;15994;51.796;13.006;2022-09-24T15:21:55;18.70;99.90
28863;DHT22;15994;51.796;13.006;2022-09-24T15:24:23;18.70;99.90
28863;DHT22;15994;51.796;13.006;2022-09-24T15:29:26;18.70;99.90
28863;DHT22;15994;51.796;13.006;2022-09-24T15:31:53;18.70;99.90
28863;DHT22;15994;51.796;13.006;2022-09-24T15:34:20;18.70;99.90
28863;DHT22;15994;51.796;13.006;2022-09-24T15:36:49;18.60;99.90
28863;DHT22;15994;51.796;13.006;2022-09-24T15:39:18;18.50;99.90
28863;DHT22;15994;51.796;13.006;2022-09-24T15:41:45;18.50;99.90
28863;DHT22;15994;51.796;13.006;2022-09-24T15:44:23;18.40;99.90
28863;DHT22;15994;51.796;13.006;2022-09-24T15:46:50;18.40;99.90
28863;DHT22;15994;51.796;13.006;2022-09-24T15:49:18;18.30;99.90
28863;DHT22;15994;51.796;13.006;2022-09-24T15:51:52;18.30;99.90
28863;DHT22;15994;51.796;13.006;2022-09-24T15:54:19;18.20;99.90
28863;DHT22;15994;51.796;13.006;2022-09-24T15:56:49;18.20;99.90
28863;DHT22;15994;51.796;13.006;2022-09-24T15:59:17;18.10;99.90
28863;DHT22;15994;51.796;13.006;2022-09-24T16:01:45;18.00;99.90
28863;DHT22;15994;51.796;13.006;2022-09-24T16:04:12;18.00;99.90
28863;DHT22;15994;51.796;13.006;2022-09-24T16:06:38;17.90;99.90
28863;DHT22;15994;51.796;13.006;2022-09-24T16:09:05;17.70;99.90
28863;DHT22;15994;51.796;13.006;2022-09-24T16:11:32;17.70;99.90
28863;DHT22;15994;51.796;13.006;2022-09-24T16:13:58;17.60;99.90
28863;DHT22;15994;51.796;13.006;2022-09-24T16:16:25;17.50;99.90
28863;DHT22;15994;51.796;13.006;2022-09-24T16:18:52;17.40;99.90
28863;DHT22;15994;51.796;13.006;2022-09-24T16:21:19;17.40;99.90
28863;DHT22;15994;51.796;13.006;2022-09-24T16:23:45;17.20;99.90
28863;DHT22;15994;51.796;13.006;2022-09-24T16:26:12;17.10;99.90
28863;DHT22;15994;51.796;13.006;2022-09-24T16:28:38;17.00;99.90
28863;DHT22;15994;51.796;13.006;2022-09-24T16:31:06;16.80;99.90
28863;DHT22;15994;51.796;13.006;2022-09-24T16:33:37;16.80;99.90
28863;DHT22;15994;51.796;13.006;2022-09-24T16:36:08;16.70;99.90
28863;DHT22;15994;51.796;13.006;2022-09-24T16:38:38;16.60;99.90
28863;DHT22;15994;51.796;13.006;2022-09-24T16:41:05;16.60;99.90
28863;DHT22;15994;51.796;13.006;2022-09-24T16:43:32;16.40;99.90
28863;DHT22;15994;51.796;13.006;2022-09-24T16:46:00;16.30;99.90
28863;DHT22;15994;51.796;13.006;2022-09-24T16:48:28;16.10;99.90
28863;DHT22;15994;51.796;13.006;2022-09-24T16:51:04;16.00;99.90
28863;DHT22;15994;51.796;13.006;2022-09-24T16:53:31;15.90;99.90
28863;DHT22;15994;51.796;13.006;2022-09-24T16:56:06;15.70;99.90
28863;DHT22;15994;51.796;13.006;2022-09-24T16:58:34;15.90;99.90
28863;DHT22;15994;51.796;13.006;2022-09-24T17:01:05;16.00;99.90
28863;DHT22;15994;51.796;13.006;2022-09-24T17:03:32;16.10;99.90
28863;DHT22;15994;51.796;13.006;2022-09-24T17:05:59;16.10;99.90
28863;DHT22;15994;51.796;13.006;2022-09-24T17:08:25;16.00;99.90
28863;DHT22;15994;51.796;13.006;2022-09-24T17:11:12;16.00;99.90
28863;DHT22;15994;51.796;13.006;2022-09-24T17:13:38;15.90;99.90
28863;DHT22;15994;51.796;13.006;2022-09-24T17:16:05;15.80;99.90
28863;DHT22;15994;51.796;13.006;2022-09-24T17:18:31;15.60;99.90
28863;DHT22;15994;51.796;13.006;2022-09-24T17:21:09;15.60;99.90
28863;DHT22;15994;51.796;13.006;2022-09-24T17:23:36;15.60;99.90
28863;DHT22;15994;51.796;13.006;2022-09-24T17:28:32;15.40;99.90
28863;DHT22;15994;51.796;13.006;2022-09-24T17:30:59;15.40;99.90
28863;DHT22;15994;51.796;13.006;2022-09-24T17:33:26;15.40;99.90
28863;DHT22;15994;51.796;13.006;2022-09-24T17:35:57;15.30;99.90
28863;DHT22;15994;51.796;13.006;2022-09-24T17:38:24;15.20;99.90
28863;DHT22;15994;51.796;13.006;2022-09-24T17:40:53;15.20;99.90
28863;DHT22;15994;51.796;13.006;2022-09-24T17:43:19;15.10;99.90
28863;DHT22;15994;51.796;13.006;2022-09-24T17:46:03;15.00;99.90
28863;DHT22;15994;51.796;13.006;2022-09-24T17:48:33;15.00;99.90